sensor_id;sensor_type;location;lat;lon;timestamp;P1;durP1;ratioP1;P2;durP2;ratioP2
82574;SDS011;72260;65.870;13.210;2024-01-16T00:01:32;0.10;;;0.10;;
82574;SDS011;72260;65.870;13.210;2024-01-16T00:03:58;0.10;;;0.10;;
82574;SDS011;72260;65.870;13.210;2024-01-16T00:06:25;0.17;;;0.17;;
82574;SDS011;72260;65.870;13.210;2024-01-16T00:08:50;0.25;;;0.10;;
82574;SDS011;72260;65.870;13.210;2024-01-16T00:11:16;3.20;;;0.15;;
82574;SDS011;72260;65.870;13.210;2024-01-16T00:13:41;0.00;;;0.00;;
82574;SDS011;72260;65.870;13.210;2024-01-16T00:16:06;0.20;;;0.20;;
82574;SDS011;72260;65.870;13.210;2024-01-16T00:18:32;0.03;;;0.03;;
82574;SDS011;72260;65.870;13.210;2024-01-16T00:21:00;0.47;;;0.20;;
82574;SDS011;72260;65.870;13.210;2024-01-16T00:23:27;0.10;;;0.10;;
82574;SDS011;72260;65.870;13.210;2024-01-16T00:25:54;1.45;;;0.63;;
82574;SDS011;72260;65.870;13.210;2024-01-16T00:28:19;0.10;;;0.10;;
82574;SDS011;72260;65.870;13.210;2024-01-16T00:30:45;0.10;;;0.10;;
82574;SDS011;72260;65.870;13.210;2024-01-16T00:33:11;0.25;;;0.25;;
82574;SDS011;72260;65.870;13.210;2024-01-16T00:35:37;0.30;;;0.30;;
82574;SDS011;72260;65.870;13.210;2024-01-16T00:38:04;0.17;;;0.10;;
82574;SDS011;72260;65.870;13.210;2024-01-16T00:40:29;0.10;;;0.10;;
82574;SDS011;72260;65.870;13.210;2024-01-16T00:42:55;0.20;;;0.20;;
82574;SDS011;72260;65.870;13.210;2024-01-16T00:45:21;0.13;;;0.13;;
82574;SDS011;72260;65.870;13.210;2024-01-16T00:47:46;0.25;;;0.25;;
82574;SDS011;72260;65.870;13.210;2024-01-16T00:50:12;0.77;;;0.77;;
82574;SDS011;72260;65.870;13.210;2024-01-16T00:52:37;0.32;;;0.32;;
82574;SDS011;72260;65.870;13.210;2024-01-16T00:55:03;0.28;;;0.28;;
82574;SDS011;72260;65.870;13.210;2024-01-16T00:57:29;0.50;;;0.30;;
82574;SDS011;72260;65.870;13.210;2024-01-16T00:59:55;0.03;;;0.03;;
82574;SDS011;72260;65.870;13.210;2024-01-16T01:02:21;0.25;;;0.13;;
82574;SDS011;72260;65.870;13.210;2024-01-16T01:04:46;0.00;;;0.00;;
82574;SDS011;72260;65.870;13.210;2024-01-16T01:07:22;0.20;;;0.20;;
82574;SDS011;72260;65.870;13.210;2024-01-16T01:09:50;0.08;;;0.08;;
82574;SDS011;72260;65.870;13.210;2024-01-16T01:12:16;0.10;;;0.10;;
82574;SDS011;72260;65.870;13.210;2024-01-16T01:14:41;0.10;;;0.10;;
82574;SDS011;72260;65.870;13.210;2024-01-16T01:17:09;1.17;;;0.28;;
82574;SDS011;72260;65.870;13.210;2024-01-16T01:19:34;0.30;;;0.30;;
82574;SDS011;72260;65.870;13.210;2024-01-16T01:22:00;0.20;;;0.20;;
82574;SDS011;72260;65.870;13.210;2024-01-16T01:24:26;0.65;;;0.30;;
82574;SDS011;72260;65.870;13.210;2024-01-16T01:26:52;0.10;;;0.10;;
82574;SDS011;72260;65.870;13.210;2024-01-16T01:29:17;0.28;;;0.28;;
82574;SDS011;72260;65.870;13.210;2024-01-16T01:31:47;1.10;;;0.40;;
82574;SDS011;72260;65.870;13.210;2024-01-16T01:34:13;0.55;;;0.13;;
82574;SDS011;72260;65.870;13.210;2024-01-16T01:36:39;0.50;;;0.30;;
82574;SDS011;72260;65.870;13.210;2024-01-16T01:39:04;1.38;;;0.30;;
82574;SDS011;72260;65.870;13.210;2024-01-16T01:41:30;0.65;;;0.22;;
82574;SDS011;72260;65.870;13.210;2024-01-16T01:43:57;0.03;;;0.03;;
82574;SDS011;72260;65.870;13.210;2024-01-16T01:46:23;0.35;;;0.32;;
82574;SDS011;72260;65.870;13.210;2024-01-16T01:48:48;0.03;;;0.03;;
82574;SDS011;72260;65.870;13.210;2024-01-16T01:51:17;0.30;;;0.20;;
82574;SDS011;72260;65.870;13.210;2024-01-16T01:53:44;0.30;;;0.13;;
82574;SDS011;72260;65.870;13.210;2024-01-16T01:56:14;0.50;;;0.20;;
82574;SDS011;72260;65.870;13.210;2024-01-16T01:58:46;0.13;;;0.13;;
82574;SDS011;72260;65.870;13.210;2024-01-16T02:01:13;0.15;;;0.15;;
82574;SDS011;72260;65.870;13.210;2024-01-16T02:03:44;0.65;;;0.10;;
82574;SDS011;72260;65.870;13.210;2024-01-16T02:06:13;0.08;;;0.08;;
82574;SDS011;72260;65.870;13.210;2024-01-16T02:08:41;0.03;;;0.03;;
82574;SDS011;72260;65.870;13.210;2024-01-16T02:11:07;0.47;;;0.47;;
82574;SDS011;72260;65.870;13.210;2024-01-16T02:13:32;0.20;;;0.20;;
82574;SDS011;72260;65.870;13.210;2024-01-16T02:15:58;0.63;;;0.60;;
82574;SDS011;72260;65.870;13.210;2024-01-16T02:18:24;0.30;;;0.30;;
82574;SDS011;72260;65.870;13.210;2024-01-16T02:20:49;1.80;;;0.80;;
82574;SDS011;72260;65.870;13.210;2024-01-16T02:23:15;0.25;;;0.25;;
82574;SDS011;72260;65.870;13.210;2024-01-16T02:25:54;3.10;;;1.17;;
82574;SDS011;72260;65.870;13.210;2024-01-16T02:28:19;0.73;;;0.57;;
82574;SDS011;72260;65.870;13.210;2024-01-16T02:30:45;0.45;;;0.45;;
82574;SDS011;72260;65.870;13.210;2024-01-16T02:33:11;1.10;;;0.75;;
82574;SDS011;72260;65.870;13.210;2024-01-16T02:35:37;0.47;;;0.47;;
82574;SDS011;72260;65.870;13.210;2024-01-16T02:38:02;0.25;;;0.25;;
82574;SDS011;72260;65.870;13.210;2024-01-16T02:40:28;0.73;;;0.40;;
82574;SDS011;72260;65.870;13.210;2024-01-16T02:42:54;0.25;;;0.25;;
82574;SDS011;72260;65.870;13.210;2024-01-16T02:45:20;0.15;;;0.15;;
82574;SDS011;72260;65.870;13.210;2024-01-16T02:47:45;0.10;;;0.10;;
82574;SDS011;72260;65.870;13.210;2024-01-16T02:50:12;0.13;;;0.13;;
82574;SDS011;72260;65.870;13.210;2024-01-16T02:52:38;0.28;;;0.28;;
82574;SDS011;72260;65.870;13.210;2024-01-16T02:55:04;0.82;;;0.30;;
82574;SDS011;72260;65.870;13.210;2024-01-16T02:57:30;0.30;;;0.30;;
82574;SDS011;72260;65.870;13.210;2024-01-16T02:59:56;0.17;;;0.13;;
82574;SDS011;72260;65.870;13.210;2024-01-16T03:02:22;1.35;;;1.20;;
82574;SDS011;72260;65.870;13.210;2024-01-16T03:04:48;0.52;;;0.52;;
82574;SDS011;72260;65.870;13.210;2024-01-16T03:07:14;0.30;;;0.22;;
82574;SDS011;72260;65.870;13.210;2024-01-16T03:09:40;0.45;;;0.45;;
82574;SDS011;72260;65.870;13.210;2024-01-16T03:12:07;0.20;;;0.20;;
82574;SDS011;72260;65.870;13.210;2024-01-16T03:14:33;0.47;;;0.17;;
82574;SDS011;72260;65.870;13.210;2024-01-16T03:17:01;0.93;;;0.28;;
82574;SDS011;72260;65.870;13.210;2024-01-16T03:19:27;0.55;;;0.38;;
82574;SDS011;72260;65.870;13.210;2024-01-16T03:21:52;0.75;;;0.75;;
82574;SDS011;72260;65.870;13.210;2024-01-16T03:24:20;1.52;;;1.05;;
82574;SDS011;72260;65.870;13.210;2024-01-16T03:26:46;0.63;;;0.63;;
82574;SDS011;72260;65.870;13.210;2024-01-16T03:29:11;0.63;;;0.60;;
82574;SDS011;72260;65.870;13.210;2024-01-16T03:31:37;1.23;;;1.13;;
82574;SDS011;72260;65.870;13.210;2024-01-16T03:34:03;0.43;;;0.43;;
82574;SDS011;72260;65.870;13.210;2024-01-16T03:36:28;2.33;;;0.68;;
82574;SDS011;72260;65.870;13.210;2024-01-16T03:41:29;0.10;;;0.10;;
82574;SDS011;72260;65.870;13.210;2024-01-16T03:43:54;0.50;;;0.50;;
82574;SDS011;72260;65.870;13.210;2024-01-16T03:46:22;0.90;;;0.43;;
82574;SDS011;72260;65.870;13.210;2024-01-16T03:48:48;0.22;;;0.22;;
82574;SDS011;72260;65.870;13.210;2024-01-16T03:51:13;0.13;;;0.13;;
82574;SDS011;72260;65.870;13.210;2024-01-16T03:53:43;0.17;;;0.17;;
82574;SDS011;72260;65.870;13.210;2024-01-16T03:56:08;0.20;;;0.20;;
82574;SDS011;72260;65.870;13.210;2024-01-16T03:58:34;0.38;;;0.35;;
82574;SDS011;72260;65.870;13.210;2024-01-16T04:00:59;0.40;;;0.40;;
82574;SDS011;72260;65.870;13.210;2024-01-16T04:03:25;0.52;;;0.50;;
82574;SDS011;72260;65.870;13.210;2024-01-16T04:05:50;1.08;;;0.88;;
82574;SDS011;72260;65.870;13.210;2024-01-16T04:08:17;0.15;;;0.15;;
82574;SDS011;72260;65.870;13.210;2024-01-16T04:10:43;0.30;;;0.30;;
82574;SDS011;72260;65.870;13.210;2024-01-16T04:13:08;0.30;;;0.30;;
82574;SDS011;72260;65.870;13.210;2024-01-16T04:15:34;0.15;;;0.15;;
82574;SDS011;72260;65.870;13.210;2024-01-16T04:18:03;0.22;;;0.22;;
82574;SDS011;72260;65.870;13.210;2024-01-16T04:20:29;1.23;;;0.45;;
82574;SDS011;72260;65.870;13.210;2024-01-16T04:22:54;0.60;;;0.47;;
82574;SDS011;72260;65.870;13.210;2024-01-16T04:25:21;2.60;;;1.00;;
82574;SDS011;72260;65.870;13.210;2024-01-16T04:27:47;1.02;;;0.65;;
82574;SDS011;72260;65.870;13.210;2024-01-16T04:30:12;1.42;;;0.70;;
82574;SDS011;72260;65.870;13.210;2024-01-16T04:32:38;4.22;;;0.35;;
82574;SDS011;72260;65.870;13.210;2024-01-16T04:35:04;0.63;;;0.52;;
82574;SDS011;72260;65.870;13.210;2024-01-16T04:37:29;0.30;;;0.30;;
82574;SDS011;72260;65.870;13.210;2024-01-16T04:39:55;0.17;;;0.17;;
82574;SDS011;72260;65.870;13.210;2024-01-16T04:42:20;0.45;;;0.45;;
82574;SDS011;72260;65.870;13.210;2024-01-16T04:44:45;0.13;;;0.13;;
82574;SDS011;72260;65.870;13.210;2024-01-16T04:47:11;0.77;;;0.50;;
82574;SDS011;72260;65.870;13.210;2024-01-16T04:49:37;0.60;;;0.60;;
82574;SDS011;72260;65.870;13.210;2024-01-16T04:52:02;0.57;;;0.40;;
82574;SDS011;72260;65.870;13.210;2024-01-16T04:54:28;0.52;;;0.47;;
82574;SDS011;72260;65.870;13.210;2024-01-16T04:56:53;0.75;;;0.52;;
82574;SDS011;72260;65.870;13.210;2024-01-16T04:59:19;0.93;;;0.70;;
82574;SDS011;72260;65.870;13.210;2024-01-16T05:01:45;0.80;;;0.55;;
82574;SDS011;72260;65.870;13.210;2024-01-16T05:04:11;0.43;;;0.43;;
82574;SDS011;72260;65.870;13.210;2024-01-16T05:06:36;1.98;;;0.50;;
82574;SDS011;72260;65.870;13.210;2024-01-16T05:09:01;0.77;;;0.77;;
82574;SDS011;72260;65.870;13.210;2024-01-16T05:11:28;0.52;;;0.52;;
82574;SDS011;72260;65.870;13.210;2024-01-16T05:13:54;0.30;;;0.30;;
82574;SDS011;72260;65.870;13.210;2024-01-16T05:16:26;0.52;;;0.28;;
82574;SDS011;72260;65.870;13.210;2024-01-16T05:18:52;0.30;;;0.30;;
82574;SDS011;72260;65.870;13.210;2024-01-16T05:21:20;0.45;;;0.45;;
82574;SDS011;72260;65.870;13.210;2024-01-16T05:23:46;0.57;;;0.57;;
82574;SDS011;72260;65.870;13.210;2024-01-16T05:26:12;0.45;;;0.45;;
82574;SDS011;72260;65.870;13.210;2024-01-16T05:28:38;0.68;;;0.50;;
82574;SDS011;72260;65.870;13.210;2024-01-16T05:31:04;0.30;;;0.30;;
82574;SDS011;72260;65.870;13.210;2024-01-16T05:33:29;0.52;;;0.40;;
82574;SDS011;72260;65.870;13.210;2024-01-16T05:35:56;1.25;;;0.57;;
82574;SDS011;72260;65.870;13.210;2024-01-16T05:38:22;0.28;;;0.28;;
82574;SDS011;72260;65.870;13.210;2024-01-16T05:40:48;0.85;;;0.60;;
82574;SDS011;72260;65.870;13.210;2024-01-16T05:43:13;0.22;;;0.22;;
82574;SDS011;72260;65.870;13.210;2024-01-16T05:45:39;0.38;;;0.38;;
82574;SDS011;72260;65.870;13.210;2024-01-16T05:48:05;0.10;;;0.10;;
82574;SDS011;72260;65.870;13.210;2024-01-16T05:50:33;0.90;;;0.88;;
82574;SDS011;72260;65.870;13.210;2024-01-16T05:52:59;0.90;;;0.32;;
82574;SDS011;72260;65.870;13.210;2024-01-16T05:55:24;0.77;;;0.55;;
82574;SDS011;72260;65.870;13.210;2024-01-16T05:57:51;0.75;;;0.32;;
82574;SDS011;72260;65.870;13.210;2024-01-16T06:00:19;0.40;;;0.38;;
82574;SDS011;72260;65.870;13.210;2024-01-16T06:02:47;0.28;;;0.28;;
82574;SDS011;72260;65.870;13.210;2024-01-16T06:05:13;0.75;;;0.65;;
82574;SDS011;72260;65.870;13.210;2024-01-16T06:07:38;1.17;;;1.02;;
82574;SDS011;72260;65.870;13.210;2024-01-16T06:10:05;0.55;;;0.55;;
82574;SDS011;72260;65.870;13.210;2024-01-16T06:12:31;0.73;;;0.50;;
82574;SDS011;72260;65.870;13.210;2024-01-16T06:14:56;0.28;;;0.28;;
82574;SDS011;72260;65.870;13.210;2024-01-16T06:17:23;0.55;;;0.45;;
82574;SDS011;72260;65.870;13.210;2024-01-16T06:19:49;16.15;;;6.57;;
82574;SDS011;72260;65.870;13.210;2024-01-16T06:22:14;11.18;;;6.43;;
82574;SDS011;72260;65.870;13.210;2024-01-16T06:24:39;5.50;;;2.35;;
82574;SDS011;72260;65.870;13.210;2024-01-16T06:27:05;3.65;;;1.80;;
82574;SDS011;72260;65.870;13.210;2024-01-16T06:29:32;4.85;;;0.73;;
82574;SDS011;72260;65.870;13.210;2024-01-16T06:31:59;0.40;;;0.40;;
82574;SDS011;72260;65.870;13.210;2024-01-16T06:34:25;0.40;;;0.30;;
82574;SDS011;72260;65.870;13.210;2024-01-16T06:36:52;0.38;;;0.38;;
82574;SDS011;72260;65.870;13.210;2024-01-16T06:39:17;0.57;;;0.57;;
82574;SDS011;72260;65.870;13.210;2024-01-16T06:41:43;0.32;;;0.32;;
82574;SDS011;72260;65.870;13.210;2024-01-16T06:44:08;0.28;;;0.28;;
82574;SDS011;72260;65.870;13.210;2024-01-16T06:46:34;0.35;;;0.30;;
82574;SDS011;72260;65.870;13.210;2024-01-16T06:49:00;0.70;;;0.20;;
82574;SDS011;72260;65.870;13.210;2024-01-16T06:51:25;1.02;;;0.70;;
82574;SDS011;72260;65.870;13.210;2024-01-16T06:53:51;1.50;;;0.35;;
82574;SDS011;72260;65.870;13.210;2024-01-16T06:56:16;0.68;;;0.63;;
82574;SDS011;72260;65.870;13.210;2024-01-16T06:58:42;0.70;;;0.70;;
82574;SDS011;72260;65.870;13.210;2024-01-16T07:01:09;0.38;;;0.38;;
82574;SDS011;72260;65.870;13.210;2024-01-16T07:03:34;0.25;;;0.25;;
82574;SDS011;72260;65.870;13.210;2024-01-16T07:06:00;0.98;;;0.50;;
82574;SDS011;72260;65.870;13.210;2024-01-16T07:08:26;0.52;;;0.52;;
82574;SDS011;72260;65.870;13.210;2024-01-16T07:10:52;0.65;;;0.50;;
82574;SDS011;72260;65.870;13.210;2024-01-16T07:13:18;0.63;;;0.63;;
82574;SDS011;72260;65.870;13.210;2024-01-16T07:15:44;0.95;;;0.90;;
82574;SDS011;72260;65.870;13.210;2024-01-16T07:20:37;0.13;;;0.13;;
82574;SDS011;72260;65.870;13.210;2024-01-16T07:23:04;0.22;;;0.20;;
82574;SDS011;72260;65.870;13.210;2024-01-16T07:25:30;6.20;;;0.98;;
82574;SDS011;72260;65.870;13.210;2024-01-16T07:27:56;0.17;;;0.17;;
82574;SDS011;72260;65.870;13.210;2024-01-16T07:30:21;0.52;;;0.52;;
82574;SDS011;72260;65.870;13.210;2024-01-16T07:32:47;0.47;;;0.47;;
82574;SDS011;72260;65.870;13.210;2024-01-16T07:35:13;0.98;;;0.82;;
82574;SDS011;72260;65.870;13.210;2024-01-16T07:37:39;0.40;;;0.40;;
82574;SDS011;72260;65.870;13.210;2024-01-16T07:40:04;0.30;;;0.30;;
82574;SDS011;72260;65.870;13.210;2024-01-16T07:42:34;1.27;;;1.00;;
82574;SDS011;72260;65.870;13.210;2024-01-16T07:45:03;0.47;;;0.25;;
82574;SDS011;72260;65.870;13.210;2024-01-16T07:47:32;0.90;;;0.65;;
82574;SDS011;72260;65.870;13.210;2024-01-16T07:49:58;0.30;;;0.30;;
82574;SDS011;72260;65.870;13.210;2024-01-16T07:52:23;0.17;;;0.17;;
82574;SDS011;72260;65.870;13.210;2024-01-16T07:54:49;0.30;;;0.30;;
82574;SDS011;72260;65.870;13.210;2024-01-16T07:57:15;1.10;;;0.55;;
82574;SDS011;72260;65.870;13.210;2024-01-16T07:59:40;0.93;;;0.57;;
82574;SDS011;72260;65.870;13.210;2024-01-16T08:02:06;0.55;;;0.40;;
82574;SDS011;72260;65.870;13.210;2024-01-16T08:04:34;0.10;;;0.10;;
82574;SDS011;72260;65.870;13.210;2024-01-16T08:07:00;0.35;;;0.32;;
82574;SDS011;72260;65.870;13.210;2024-01-16T08:09:25;1.40;;;0.50;;
82574;SDS011;72260;65.870;13.210;2024-01-16T08:11:51;0.32;;;0.32;;
82574;SDS011;72260;65.870;13.210;2024-01-16T08:14:19;1.35;;;0.50;;
82574;SDS011;72260;65.870;13.210;2024-01-16T08:16:45;0.40;;;0.30;;
82574;SDS011;72260;65.870;13.210;2024-01-16T08:19:10;0.20;;;0.20;;
82574;SDS011;72260;65.870;13.210;2024-01-16T08:21:36;0.17;;;0.13;;
82574;SDS011;72260;65.870;13.210;2024-01-16T08:24:02;0.52;;;0.20;;
82574;SDS011;72260;65.870;13.210;2024-01-16T08:26:27;0.38;;;0.38;;
82574;SDS011;72260;65.870;13.210;2024-01-16T08:28:53;0.20;;;0.20;;
82574;SDS011;72260;65.870;13.210;2024-01-16T08:31:19;0.13;;;0.13;;
82574;SDS011;72260;65.870;13.210;2024-01-16T08:33:45;0.43;;;0.43;;
82574;SDS011;72260;65.870;13.210;2024-01-16T08:36:12;1.73;;;1.13;;
82574;SDS011;72260;65.870;13.210;2024-01-16T08:38:38;1.35;;;1.02;;
82574;SDS011;72260;65.870;13.210;2024-01-16T08:41:03;0.20;;;0.20;;
82574;SDS011;72260;65.870;13.210;2024-01-16T08:43:31;2.03;;;0.40;;
82574;SDS011;72260;65.870;13.210;2024-01-16T08:46:00;0.50;;;0.50;;
82574;SDS011;72260;65.870;13.210;2024-01-16T08:48:25;2.03;;;1.15;;
82574;SDS011;72260;65.870;13.210;2024-01-16T08:53:43;0.30;;;0.30;;
82574;SDS011;72260;65.870;13.210;2024-01-16T08:56:09;0.43;;;0.38;;
82574;SDS011;72260;65.870;13.210;2024-01-16T08:58:34;0.65;;;0.65;;
82574;SDS011;72260;65.870;13.210;2024-01-16T09:01:03;0.15;;;0.15;;
82574;SDS011;72260;65.870;13.210;2024-01-16T09:03:30;0.73;;;0.63;;
82574;SDS011;72260;65.870;13.210;2024-01-16T09:05:57;0.40;;;0.40;;
82574;SDS011;72260;65.870;13.210;2024-01-16T09:08:22;0.30;;;0.30;;
82574;SDS011;72260;65.870;13.210;2024-01-16T09:10:48;2.45;;;0.85;;
82574;SDS011;72260;65.870;13.210;2024-01-16T09:13:13;0.35;;;0.20;;
82574;SDS011;72260;65.870;13.210;2024-01-16T09:15:39;0.45;;;0.45;;
82574;SDS011;72260;65.870;13.210;2024-01-16T09:18:05;0.32;;;0.22;;
82574;SDS011;72260;65.870;13.210;2024-01-16T09:20:31;0.55;;;0.30;;
82574;SDS011;72260;65.870;13.210;2024-01-16T09:22:56;0.50;;;0.50;;
82574;SDS011;72260;65.870;13.210;2024-01-16T09:25:22;0.47;;;0.35;;
82574;SDS011;72260;65.870;13.210;2024-01-16T09:27:50;0.52;;;0.52;;
82574;SDS011;72260;65.870;13.210;2024-01-16T09:30:16;2.30;;;0.93;;
82574;SDS011;72260;65.870;13.210;2024-01-16T09:32:42;0.22;;;0.22;;
82574;SDS011;72260;65.870;13.210;2024-01-16T09:35:08;0.32;;;0.32;;
82574;SDS011;72260;65.870;13.210;2024-01-16T09:37:34;0.30;;;0.28;;
82574;SDS011;72260;65.870;13.210;2024-01-16T09:40:00;0.45;;;0.45;;
82574;SDS011;72260;65.870;13.210;2024-01-16T09:42:29;0.20;;;0.20;;
82574;SDS011;72260;65.870;13.210;2024-01-16T09:45:01;0.47;;;0.47;;
82574;SDS011;72260;65.870;13.210;2024-01-16T09:47:30;0.57;;;0.35;;
82574;SDS011;72260;65.870;13.210;2024-01-16T09:49:57;0.40;;;0.40;;
82574;SDS011;72260;65.870;13.210;2024-01-16T09:52:33;2.33;;;0.40;;
82574;SDS011;72260;65.870;13.210;2024-01-16T09:54:59;2.33;;;0.75;;
82574;SDS011;72260;65.870;13.210;2024-01-16T09:57:25;0.52;;;0.50;;
82574;SDS011;72260;65.870;13.210;2024-01-16T09:59:54;0.30;;;0.30;;
82574;SDS011;72260;65.870;13.210;2024-01-16T10:02:22;0.57;;;0.57;;
82574;SDS011;72260;65.870;13.210;2024-01-16T10:04:48;0.22;;;0.22;;
82574;SDS011;72260;65.870;13.210;2024-01-16T10:07:14;0.98;;;0.98;;
82574;SDS011;72260;65.870;13.210;2024-01-16T10:09:41;0.50;;;0.50;;
82574;SDS011;72260;65.870;13.210;2024-01-16T10:12:06;0.32;;;0.32;;
82574;SDS011;72260;65.870;13.210;2024-01-16T10:14:35;0.95;;;0.55;;
82574;SDS011;72260;65.870;13.210;2024-01-16T10:17:03;0.20;;;0.20;;
82574;SDS011;72260;65.870;13.210;2024-01-16T10:19:50;0.22;;;0.22;;
82574;SDS011;72260;65.870;13.210;2024-01-16T10:22:21;1.00;;;0.85;;
82574;SDS011;72260;65.870;13.210;2024-01-16T10:24:49;0.13;;;0.13;;
82574;SDS011;72260;65.870;13.210;2024-01-16T10:27:37;0.73;;;0.73;;
82574;SDS011;72260;65.870;13.210;2024-01-16T10:30:03;0.57;;;0.52;;
82574;SDS011;72260;65.870;13.210;2024-01-16T10:32:36;1.38;;;0.70;;
82574;SDS011;72260;65.870;13.210;2024-01-16T10:35:10;2.95;;;1.40;;
82574;SDS011;72260;65.870;13.210;2024-01-16T10:37:49;0.60;;;0.45;;
82574;SDS011;72260;65.870;13.210;2024-01-16T10:40:16;0.63;;;0.63;;
82574;SDS011;72260;65.870;13.210;2024-01-16T10:42:46;0.90;;;0.82;;
82574;SDS011;72260;65.870;13.210;2024-01-16T10:45:26;1.90;;;0.98;;
82574;SDS011;72260;65.870;13.210;2024-01-16T10:50:33;0.30;;;0.30;;
82574;SDS011;72260;65.870;13.210;2024-01-16T10:53:00;0.50;;;0.50;;
82574;SDS011;72260;65.870;13.210;2024-01-16T10:55:32;0.10;;;0.10;;
82574;SDS011;72260;65.870;13.210;2024-01-16T10:58:08;0.22;;;0.22;;
82574;SDS011;72260;65.870;13.210;2024-01-16T11:00:37;1.08;;;0.98;;
82574;SDS011;72260;65.870;13.210;2024-01-16T11:03:05;0.82;;;0.55;;
82574;SDS011;72260;65.870;13.210;2024-01-16T11:05:32;0.17;;;0.17;;
82574;SDS011;72260;65.870;13.210;2024-01-16T11:08:04;0.50;;;0.50;;
82574;SDS011;72260;65.870;13.210;2024-01-16T11:10:30;0.80;;;0.45;;
82574;SDS011;72260;65.870;13.210;2024-01-16T11:12:59;0.88;;;0.70;;
82574;SDS011;72260;65.870;13.210;2024-01-16T11:15:25;0.90;;;0.80;;
82574;SDS011;72260;65.870;13.210;2024-01-16T11:17:53;1.75;;;0.82;;
82574;SDS011;72260;65.870;13.210;2024-01-16T11:20:24;3.15;;;0.55;;
82574;SDS011;72260;65.870;13.210;2024-01-16T11:22:50;0.40;;;0.40;;
82574;SDS011;72260;65.870;13.210;2024-01-16T11:25:22;0.35;;;0.32;;
82574;SDS011;72260;65.870;13.210;2024-01-16T11:28:07;0.98;;;0.95;;
82574;SDS011;72260;65.870;13.210;2024-01-16T11:30:34;2.72;;;1.52;;
82574;SDS011;72260;65.870;13.210;2024-01-16T11:32:59;1.48;;;0.75;;
82574;SDS011;72260;65.870;13.210;2024-01-16T11:35:35;1.83;;;1.00;;
82574;SDS011;72260;65.870;13.210;2024-01-16T11:38:10;0.45;;;0.45;;
82574;SDS011;72260;65.870;13.210;2024-01-16T11:40:46;0.28;;;0.28;;
82574;SDS011;72260;65.870;13.210;2024-01-16T11:45:57;0.40;;;0.40;;
82574;SDS011;72260;65.870;13.210;2024-01-16T11:48:23;1.38;;;0.73;;
82574;SDS011;72260;65.870;13.210;2024-01-16T11:50:49;2.47;;;0.77;;
82574;SDS011;72260;65.870;13.210;2024-01-16T11:53:37;0.00;;;0.00;;
82574;SDS011;72260;65.870;13.210;2024-01-16T11:58:37;0.43;;;0.43;;
82574;SDS011;72260;65.870;13.210;2024-01-16T12:01:31;0.30;;;0.30;;
82574;SDS011;72260;65.870;13.210;2024-01-16T12:04:04;1.92;;;0.43;;
82574;SDS011;72260;65.870;13.210;2024-01-16T12:06:31;1.00;;;0.70;;
82574;SDS011;72260;65.870;13.210;2024-01-16T12:09:16;0.50;;;0.50;;
82574;SDS011;72260;65.870;13.210;2024-01-16T12:11:55;1.10;;;0.57;;
82574;SDS011;72260;65.870;13.210;2024-01-16T12:14:22;0.63;;;0.52;;
82574;SDS011;72260;65.870;13.210;2024-01-16T12:16:48;0.47;;;0.35;;
82574;SDS011;72260;65.870;13.210;2024-01-16T12:19:13;1.48;;;1.13;;
82574;SDS011;72260;65.870;13.210;2024-01-16T12:21:39;1.25;;;0.90;;
82574;SDS011;72260;65.870;13.210;2024-01-16T12:24:07;0.65;;;0.65;;
82574;SDS011;72260;65.870;13.210;2024-01-16T12:26:32;0.10;;;0.10;;
82574;SDS011;72260;65.870;13.210;2024-01-16T12:28:58;0.75;;;0.50;;
82574;SDS011;72260;65.870;13.210;2024-01-16T12:31:24;0.30;;;0.30;;
82574;SDS011;72260;65.870;13.210;2024-01-16T12:33:52;1.35;;;0.50;;
82574;SDS011;72260;65.870;13.210;2024-01-16T12:36:18;0.43;;;0.43;;
82574;SDS011;72260;65.870;13.210;2024-01-16T12:38:43;0.55;;;0.55;;
82574;SDS011;72260;65.870;13.210;2024-01-16T12:41:09;1.63;;;0.65;;
82574;SDS011;72260;65.870;13.210;2024-01-16T12:43:36;3.80;;;1.05;;
82574;SDS011;72260;65.870;13.210;2024-01-16T12:46:02;0.68;;;0.50;;
82574;SDS011;72260;65.870;13.210;2024-01-16T12:48:28;1.13;;;0.68;;
82574;SDS011;72260;65.870;13.210;2024-01-16T12:51:00;1.45;;;0.60;;
82574;SDS011;72260;65.870;13.210;2024-01-16T12:53:28;0.20;;;0.20;;
82574;SDS011;72260;65.870;13.210;2024-01-16T12:55:57;0.40;;;0.40;;
82574;SDS011;72260;65.870;13.210;2024-01-16T12:58:25;0.88;;;0.57;;
82574;SDS011;72260;65.870;13.210;2024-01-16T13:01:25;0.35;;;0.35;;
82574;SDS011;72260;65.870;13.210;2024-01-16T13:03:52;0.82;;;0.50;;
82574;SDS011;72260;65.870;13.210;2024-01-16T13:06:20;1.27;;;0.95;;
82574;SDS011;72260;65.870;13.210;2024-01-16T13:08:46;2.63;;;1.15;;
82574;SDS011;72260;65.870;13.210;2024-01-16T13:11:12;2.53;;;0.90;;
82574;SDS011;72260;65.870;13.210;2024-01-16T13:13:40;0.00;;;0.00;;
82574;SDS011;72260;65.870;13.210;2024-01-16T13:16:06;2.72;;;0.52;;
82574;SDS011;72260;65.870;13.210;2024-01-16T13:18:32;0.20;;;0.20;;
82574;SDS011;72260;65.870;13.210;2024-01-16T13:20:59;3.13;;;0.40;;
82574;SDS011;72260;65.870;13.210;2024-01-16T13:23:26;1.02;;;0.68;;
82574;SDS011;72260;65.870;13.210;2024-01-16T13:25:53;1.27;;;0.60;;
82574;SDS011;72260;65.870;13.210;2024-01-16T13:28:25;0.55;;;0.52;;
82574;SDS011;72260;65.870;13.210;2024-01-16T13:30:52;0.32;;;0.32;;
82574;SDS011;72260;65.870;13.210;2024-01-16T13:33:17;0.30;;;0.30;;
82574;SDS011;72260;65.870;13.210;2024-01-16T13:35:44;0.55;;;0.43;;
82574;SDS011;72260;65.870;13.210;2024-01-16T13:38:13;0.20;;;0.20;;
82574;SDS011;72260;65.870;13.210;2024-01-16T13:40:46;1.00;;;0.90;;
82574;SDS011;72260;65.870;13.210;2024-01-16T13:43:12;0.85;;;0.68;;
82574;SDS011;72260;65.870;13.210;2024-01-16T13:45:38;1.35;;;0.82;;
82574;SDS011;72260;65.870;13.210;2024-01-16T13:48:04;1.75;;;1.10;;
82574;SDS011;72260;65.870;13.210;2024-01-16T13:50:31;0.57;;;0.40;;
82574;SDS011;72260;65.870;13.210;2024-01-16T13:52:58;0.77;;;0.22;;
82574;SDS011;72260;65.870;13.210;2024-01-16T13:55:24;0.65;;;0.45;;
82574;SDS011;72260;65.870;13.210;2024-01-16T13:57:51;2.78;;;0.85;;
82574;SDS011;72260;65.870;13.210;2024-01-16T14:00:17;4.10;;;2.05;;
82574;SDS011;72260;65.870;13.210;2024-01-16T14:02:43;10.93;;;3.92;;
82574;SDS011;72260;65.870;13.210;2024-01-16T14:05:10;12.00;;;3.35;;
82574;SDS011;72260;65.870;13.210;2024-01-16T14:07:37;2.05;;;1.88;;
82574;SDS011;72260;65.870;13.210;2024-01-16T14:10:13;4.88;;;1.88;;
82574;SDS011;72260;65.870;13.210;2024-01-16T14:12:41;0.88;;;0.50;;
82574;SDS011;72260;65.870;13.210;2024-01-16T14:15:11;1.23;;;0.43;;
82574;SDS011;72260;65.870;13.210;2024-01-16T14:17:52;0.10;;;0.10;;
82574;SDS011;72260;65.870;13.210;2024-01-16T14:20:20;0.95;;;0.40;;
82574;SDS011;72260;65.870;13.210;2024-01-16T14:22:55;1.08;;;0.80;;
82574;SDS011;72260;65.870;13.210;2024-01-16T14:25:21;2.60;;;0.73;;
82574;SDS011;72260;65.870;13.210;2024-01-16T14:30:28;1.20;;;0.60;;
82574;SDS011;72260;65.870;13.210;2024-01-16T14:32:55;0.88;;;0.88;;
82574;SDS011;72260;65.870;13.210;2024-01-16T14:35:21;0.28;;;0.28;;
82574;SDS011;72260;65.870;13.210;2024-01-16T14:37:49;0.65;;;0.65;;
82574;SDS011;72260;65.870;13.210;2024-01-16T14:40:16;0.60;;;0.50;;
82574;SDS011;72260;65.870;13.210;2024-01-16T14:42:45;0.80;;;0.73;;
82574;SDS011;72260;65.870;13.210;2024-01-16T14:45:16;0.30;;;0.30;;
82574;SDS011;72260;65.870;13.210;2024-01-16T14:47:43;0.80;;;0.65;;
82574;SDS011;72260;65.870;13.210;2024-01-16T14:50:10;0.40;;;0.40;;
82574;SDS011;72260;65.870;13.210;2024-01-16T14:52:37;0.52;;;0.50;;